Time;durP1;ratioP1;P1;durP2;ratioP2;P2;SDS_P1;SDS_P2;PMS_P1;PMS_P2;Temp;Humidity;BMP_temperature;BMP_pressure;BME280_temperature;BME280_humidity;BME280_pressure;Samples;Min_cycle;Max_cycle;Signal;HPM_P1;HPM_P2
2023/07/27 00:00:51;;;;;;;6.68;1.98;;;;;;;;;;5082140;28;20031;-55
2023/07/27 00:03:17;;;;;;;2.93;1.80;;;;;;;;;;5083449;28;20024;-54
2023/07/27 00:05:42;;;;;;;4.35;1.73;;;;;;;;;;5046182;28;20296;-56
2023/07/27 00:08:07;;;;;;;3.53;1.75;;;;;;;;;;5082664;28;20544;-53
2023/07/27 00:10:32;;;;;;;3.78;1.90;;;;;;;;;;5075066;28;20039;-54
2023/07/27 00:12:58;;;;;;;6.65;1.90;;;;;;;;;;5085291;28;20523;-53
2023/07/27 00:15:23;;;;;;;5.10;1.50;;;;;;;;;;5086319;28;20028;-54
2023/07/27 00:17:49;;;;;;;4.43;1.50;;;;;;;;;;5085985;28;20466;-57
2023/07/27 00:20:14;;;;;;;3.35;1.42;;;;;;;;;;5086428;28;20032;-55
2023/07/27 00:22:39;;;;;;;1.60;1.50;;;;;;;;;;5044034;28;20094;-53
2023/07/27 00:25:05;;;;;;;2.38;1.70;;;;;;;;;;5042989;28;20063;-55
2023/07/27 00:27:30;;;;;;;3.55;1.65;;;;;;;;;;4959984;28;20048;-52
2023/07/27 00:29:55;;;;;;;2.53;1.58;;;;;;;;;;5039034;28;20060;-56
2023/07/27 00:32:20;;;;;;;1.52;1.30;;;;;;;;;;5033939;28;20033;-57
2023/07/27 00:34:46;;;;;;;2.40;1.48;;;;;;;;;;5023625;28;20021;-53
2023/07/27 00:37:12;;;;;;;2.75;1.50;;;;;;;;;;5043557;28;20507;-50
2023/07/27 00:39:37;;;;;;;2.72;1.33;;;;;;;;;;5042601;28;20021;-54
2023/07/27 00:42:03;;;;;;;2.40;1.17;;;;;;;;;;5025141;28;20086;-57
2023/07/27 00:44:28;;;;;;;1.45;1.30;;;;;;;;;;5023760;28;20021;-55
2023/07/27 00:46:53;;;;;;;2.05;1.50;;;;;;;;;;5040857;28;20223;-51
2023/07/27 00:49:19;;;;;;;3.83;1.40;;;;;;;;;;5042325;28;20094;-53
2023/07/27 00:51:44;;;;;;;1.67;1.15;;;;;;;;;;5042482;28;20060;-50
2023/07/27 00:54:10;;;;;;;2.60;1.45;;;;;;;;;;5073782;28;20042;-54
2023/07/27 00:56:36;;;;;;;3.10;1.35;;;;;;;;;;5085674;28;20492;-56
2023/07/27 00:59:02;;;;;;;1.85;1.30;;;;;;;;;;5078949;28;20115;-56
2023/07/27 01:01:27;;;;;;;6.38;1.42;;;;;;;;;;5043123;28;20495;-50
2023/07/27 01:03:53;;;;;;;2.17;1.15;;;;;;;;;;5085642;28;20032;-56
2023/07/27 01:06:18;;;;;;;1.02;0.93;;;;;;;;;;5085316;28;20059;-50
2023/07/27 01:08:43;;;;;;;2.60;1.50;;;;;;;;;;5068308;28;20150;-55
2023/07/27 01:11:12;;;;;;;1.70;1.35;;;;;;;;;;5085446;28;20039;-50
2023/07/27 01:13:37;;;;;;;2.97;1.40;;;;;;;;;;5086276;28;20082;-51
2023/07/27 01:16:08;;;;;;;4.70;1.50;;;;;;;;;;5081259;28;20020;-55
2023/07/27 01:18:40;;;;;;;3.40;1.58;;;;;;;;;;5086348;28;20272;-52
2023/07/27 01:21:05;;;;;;;1.85;1.10;;;;;;;;;;5084543;28;20119;-51
2023/07/27 01:23:39;;;;;;;2.57;1.50;;;;;;;;;;5085041;28;20563;-52
2023/07/27 01:26:23;;;;;;;4.00;1.20;;;;;;;;;;5071710;28;20265;-54
2023/07/27 01:29:03;;;;;;;2.58;1.10;;;;;;;;;;5065751;28;20420;-55
2023/07/27 01:31:41;;;;;;;1.92;1.10;;;;;;;;;;5077069;28;20127;-55
2023/07/27 01:34:08;;;;;;;1.35;1.00;;;;;;;;;;5065535;28;20021;-54
2023/07/27 01:36:37;;;;;;;5.03;1.58;;;;;;;;;;5080300;28;20039;-54
2023/07/27 01:39:06;;;;;;;1.65;1.30;;;;;;;;;;5083415;28;20537;-55
2023/07/27 01:41:32;;;;;;;1.13;1.10;;;;;;;;;;5080071;28;20196;-52
2023/07/27 01:43:58;;;;;;;2.53;1.30;;;;;;;;;;5085090;28;20594;-52
2023/07/27 01:46:24;;;;;;;2.22;1.50;;;;;;;;;;5065144;28;20403;-56
2023/07/27 01:48:50;;;;;;;2.47;1.42;;;;;;;;;;5084379;28;20020;-57
2023/07/27 01:51:16;;;;;;;3.90;1.40;;;;;;;;;;5083794;28;20047;-53
2023/07/27 01:53:42;;;;;;;3.67;1.20;;;;;;;;;;5074540;28;20476;-55
2023/07/27 01:56:07;;;;;;;1.67;1.30;;;;;;;;;;5083424;28;20522;-53
2023/07/27 01:58:34;;;;;;;2.67;1.35;;;;;;;;;;5090337;28;20027;-56
2023/07/27 02:01:00;;;;;;;1.92;1.00;;;;;;;;;;5105218;28;20059;-54
2023/07/27 02:03:25;;;;;;;3.00;1.30;;;;;;;;;;5105685;28;20488;-57
2023/07/27 02:05:50;;;;;;;4.10;1.52;;;;;;;;;;5105440;28;20020;-54
2023/07/27 02:08:16;;;;;;;3.13;1.02;;;;;;;;;;5105403;28;20033;-56
2023/07/27 02:10:41;;;;;;;4.93;1.63;;;;;;;;;;5082690;28;20119;-54
2023/07/27 02:13:21;;;;;;;2.00;1.10;;;;;;;;;;5066410;28;20526;-55
2023/07/27 02:15:48;;;;;;;2.30;1.65;;;;;;;;;;5084852;28;20032;-57
2023/07/27 02:18:18;;;;;;;4.43;1.58;;;;;;;;;;5085493;28;20692;-55
2023/07/27 02:20:44;;;;;;;3.97;1.58;;;;;;;;;;5041849;28;20463;-53
2023/07/27 02:23:10;;;;;;;2.15;1.40;;;;;;;;;;5041908;28;20037;-56
2023/07/27 02:25:35;;;;;;;2.20;1.33;;;;;;;;;;5042200;28;20149;-56
2023/07/27 02:28:00;;;;;;;2.40;1.50;;;;;;;;;;5042011;28;20583;-55
2023/07/27 02:30:26;;;;;;;1.27;1.17;;;;;;;;;;5041631;28;20558;-53
2023/07/27 02:32:51;;;;;;;1.65;1.30;;;;;;;;;;5042083;28;20029;-53
2023/07/27 02:35:16;;;;;;;1.73;1.30;;;;;;;;;;5041112;28;20685;-53
2023/07/27 02:37:41;;;;;;;3.38;1.52;;;;;;;;;;5041975;28;20468;-55
2023/07/27 02:40:07;;;;;;;1.85;1.50;;;;;;;;;;5041533;28;20037;-54
2023/07/27 02:42:32;;;;;;;2.38;1.90;;;;;;;;;;5041593;28;20473;-53
2023/07/27 02:44:57;;;;;;;2.60;1.67;;;;;;;;;;5041600;28;20032;-56
2023/07/27 02:47:23;;;;;;;2.20;1.37;;;;;;;;;;5041036;28;20092;-54
2023/07/27 02:49:48;;;;;;;3.17;1.87;;;;;;;;;;5041259;28;20331;-55
2023/07/27 02:52:13;;;;;;;1.52;1.33;;;;;;;;;;5025811;28;20673;-51
2023/07/27 02:54:38;;;;;;;4.25;1.45;;;;;;;;;;5084282;28;20460;-56
2023/07/27 02:57:04;;;;;;;1.92;1.52;;;;;;;;;;5084700;28;20448;-52
2023/07/27 02:59:29;;;;;;;2.28;1.63;;;;;;;;;;5084321;28;20028;-55
2023/07/27 03:01:54;;;;;;;1.80;1.40;;;;;;;;;;5084184;28;20119;-56
2023/07/27 03:04:20;;;;;;;4.30;1.77;;;;;;;;;;5066518;28;20283;-51
2023/07/27 03:06:45;;;;;;;1.95;1.73;;;;;;;;;;5084867;28;20032;-52
2023/07/27 03:09:10;;;;;;;4.85;2.10;;;;;;;;;;5083909;28;20395;-54
2023/07/27 03:11:37;;;;;;;2.65;1.83;;;;;;;;;;5084182;28;20059;-49
2023/07/27 03:14:02;;;;;;;2.58;1.75;;;;;;;;;;5084250;28;20059;-51
2023/07/27 03:16:27;;;;;;;3.83;2.05;;;;;;;;;;5083929;28;20082;-57
2023/07/27 03:18:53;;;;;;;2.03;1.77;;;;;;;;;;5083797;28;20016;-54
2023/07/27 03:21:18;;;;;;;3.80;1.92;;;;;;;;;;5047718;28;20036;-50
2023/07/27 03:23:43;;;;;;;3.13;1.80;;;;;;;;;;5083359;28;20028;-54
2023/07/27 03:26:10;;;;;;;3.42;2.13;;;;;;;;;;5083807;28;20044;-55
2023/07/27 03:28:36;;;;;;;4.63;1.75;;;;;;;;;;5083962;28;20016;-51
2023/07/27 03:31:01;;;;;;;2.50;1.67;;;;;;;;;;5083908;28;20432;-54
2023/07/27 03:33:26;;;;;;;3.20;1.63;;;;;;;;;;5083554;28;20368;-51
2023/07/27 03:35:51;;;;;;;2.42;1.85;;;;;;;;;;5083689;28;20491;-56
2023/07/27 03:38:17;;;;;;;5.20;2.20;;;;;;;;;;5083836;28;20035;-52
2023/07/27 03:40:42;;;;;;;5.47;2.20;;;;;;;;;;5083535;28;20475;-58
2023/07/27 03:43:07;;;;;;;4.57;2.05;;;;;;;;;;5083608;28;20012;-53
2023/07/27 03:45:32;;;;;;;2.90;1.67;;;;;;;;;;5083424;28;20074;-57
2023/07/27 03:47:58;;;;;;;4.60;2.28;;;;;;;;;;5087310;28;20031;-54
2023/07/27 03:50:23;;;;;;;3.17;2.17;;;;;;;;;;5052031;28;20040;-54
2023/07/27 03:52:48;;;;;;;1.88;1.70;;;;;;;;;;5088020;28;20032;-54
2023/07/27 03:55:14;;;;;;;5.30;1.95;;;;;;;;;;5087711;28;20058;-57
2023/07/27 03:57:40;;;;;;;3.45;1.67;;;;;;;;;;5087993;28;20031;-58
2023/07/27 04:00:06;;;;;;;2.67;1.80;;;;;;;;;;5087916;28;20047;-55
2023/07/27 04:02:31;;;;;;;6.40;1.70;;;;;;;;;;5088194;28;20320;-55
2023/07/27 04:04:56;;;;;;;4.10;1.90;;;;;;;;;;5035020;28;20678;-52
2023/07/27 04:07:22;;;;;;;3.08;2.05;;;;;;;;;;5087492;28;20020;-57
2023/07/27 04:09:47;;;;;;;2.83;1.70;;;;;;;;;;5087625;28;20023;-51
2023/07/27 04:12:12;;;;;;;2.78;1.58;;;;;;;;;;5087290;28;20024;-57
2023/07/27 04:14:38;;;;;;;2.78;1.77;;;;;;;;;;5087625;28;20027;-54
2023/07/27 04:17:03;;;;;;;4.30;1.70;;;;;;;;;;5087464;28;20024;-57
2023/07/27 04:19:29;;;;;;;2.47;1.40;;;;;;;;;;5087275;28;20020;-55
2023/07/27 04:21:54;;;;;;;4.78;1.70;;;;;;;;;;5068462;28;20035;-53
2023/07/27 04:24:20;;;;;;;4.30;1.57;;;;;;;;;;5086989;28;20040;-57
2023/07/27 04:26:45;;;;;;;2.42;1.70;;;;;;;;;;5087424;28;20241;-55
2023/07/27 04:29:10;;;;;;;2.92;1.52;;;;;;;;;;5087028;28;20133;-50
2023/07/27 04:31:35;;;;;;;4.93;1.63;;;;;;;;;;5087214;28;20486;-56
2023/07/27 04:34:01;;;;;;;1.50;1.25;;;;;;;;;;5087147;28;20027;-57
2023/07/27 04:36:26;;;;;;;1.27;1.17;;;;;;;;;;5087622;28;20517;-56
2023/07/27 04:38:51;;;;;;;2.53;1.38;;;;;;;;;;5087303;28;20249;-54
2023/07/27 04:41:16;;;;;;;2.20;1.30;;;;;;;;;;5086970;28;20119;-52
2023/07/27 04:43:42;;;;;;;2.07;1.20;;;;;;;;;;5087123;28;20240;-57
2023/07/27 04:46:07;;;;;;;2.78;1.10;;;;;;;;;;5087104;28;20245;-55
2023/07/27 04:48:32;;;;;;;1.40;1.20;;;;;;;;;;5086756;28;20016;-51
2023/07/27 04:50:58;;;;;;;3.45;1.58;;;;;;;;;;5087416;28;20067;-55
2023/07/27 04:53:24;;;;;;;2.10;1.38;;;;;;;;;;5086685;28;20580;-57
2023/07/27 04:55:49;;;;;;;2.47;1.13;;;;;;;;;;5086695;28;20016;-53
2023/07/27 04:58:14;;;;;;;3.33;1.30;;;;;;;;;;5086415;28;20016;-53
2023/07/27 05:00:39;;;;;;;2.70;1.20;;;;;;;;;;5086417;28;20283;-55
2023/07/27 05:03:05;;;;;;;2.80;1.65;;;;;;;;;;5086711;28;20265;-58
2023/07/27 05:05:30;;;;;;;3.55;1.30;;;;;;;;;;5086834;28;20017;-55
2023/07/27 05:07:55;;;;;;;3.15;1.27;;;;;;;;;;5086651;28;20042;-57
2023/07/27 05:10:22;;;;;;;1.27;0.98;;;;;;;;;;5086833;28;20024;-57
2023/07/27 05:12:48;;;;;;;1.65;1.08;;;;;;;;;;5086649;28;20020;-58
2023/07/27 05:15:13;;;;;;;1.67;1.20;;;;;;;;;;5086460;28;20085;-57
2023/07/27 05:17:38;;;;;;;1.47;1.17;;;;;;;;;;5086239;28;20024;-53
2023/07/27 05:20:04;;;;;;;1.63;1.43;;;;;;;;;;5085840;28;20267;-58
2023/07/27 05:22:29;;;;;;;1.38;1.00;;;;;;;;;;5085758;28;20253;-56
2023/07/27 05:24:55;;;;;;;1.10;1.00;;;;;;;;;;5086492;28;20486;-54
2023/07/27 05:27:20;;;;;;;2.53;1.13;;;;;;;;;;5086383;28;20040;-52
2023/07/27 05:29:45;;;;;;;1.73;1.10;;;;;;;;;;5085856;28;20044;-56
2023/07/27 05:32:11;;;;;;;1.75;1.25;;;;;;;;;;5086010;28;20035;-58
2023/07/27 05:34:36;;;;;;;1.40;1.17;;;;;;;;;;5086314;28;20027;-56
2023/07/27 05:37:01;;;;;;;5.47;1.30;;;;;;;;;;5085558;28;20317;-56
2023/07/27 05:39:29;;;;;;;2.40;1.02;;;;;;;;;;5085875;28;20020;-57
2023/07/27 05:41:55;;;;;;;1.20;1.10;;;;;;;;;;5082791;28;20441;-58
2023/07/27 05:44:21;;;;;;;3.87;1.10;;;;;;;;;;5082708;28;20036;-55
2023/07/27 05:46:46;;;;;;;1.15;0.98;;;;;;;;;;5086145;28;20248;-58
2023/07/27 05:49:11;;;;;;;1.75;0.90;;;;;;;;;;5084581;28;20028;-55
2023/07/27 05:51:37;;;;;;;2.80;1.25;;;;;;;;;;5085859;28;20028;-59
2023/07/27 05:54:02;;;;;;;2.15;1.05;;;;;;;;;;5085680;28;20411;-56
2023/07/27 05:56:27;;;;;;;2.25;1.00;;;;;;;;;;5086244;28;20405;-57
2023/07/27 05:58:53;;;;;;;0.80;0.80;;;;;;;;;;5085464;28;20101;-54
2023/07/27 06:01:18;;;;;;;3.77;1.00;;;;;;;;;;5078631;28;20077;-57
2023/07/27 06:03:43;;;;;;;1.93;0.90;;;;;;;;;;5084806;28;20249;-56
2023/07/27 06:06:09;;;;;;;2.58;1.30;;;;;;;;;;5079797;28;20633;-55
2023/07/27 06:08:34;;;;;;;3.00;1.02;;;;;;;;;;5079354;28;20032;-57
2023/07/27 06:11:04;;;;;;;2.97;0.85;;;;;;;;;;5076366;28;20034;-52
2023/07/27 06:13:29;;;;;;;2.08;1.17;;;;;;;;;;5085138;28;20020;-53
2023/07/27 06:15:55;;;;;;;2.20;1.10;;;;;;;;;;5090542;28;20532;-57
2023/07/27 06:18:20;;;;;;;5.35;1.27;;;;;;;;;;5075161;28;20047;-56
2023/07/27 06:20:45;;;;;;;2.67;0.73;;;;;;;;;;5087427;28;20024;-57
2023/07/27 06:23:10;;;;;;;2.30;1.10;;;;;;;;;;5091828;28;20325;-59
2023/07/27 06:25:40;;;;;;;1.20;1.10;;;;;;;;;;5097383;28;20865;-60
2023/07/27 06:28:05;;;;;;;7.63;1.20;;;;;;;;;;5078116;28;20035;-57
2023/07/27 06:30:34;;;;;;;2.17;0.90;;;;;;;;;;5082107;28;20044;-58
2023/07/27 06:32:59;;;;;;;3.55;1.20;;;;;;;;;;5082092;28;20275;-55
2023/07/27 06:35:24;;;;;;;5.37;1.30;;;;;;;;;;5088831;28;20436;-55
2023/07/27 06:37:50;;;;;;;3.03;1.00;;;;;;;;;;5083021;28;20337;-57
2023/07/27 06:40:15;;;;;;;4.33;1.00;;;;;;;;;;5084773;28;20264;-56
2023/07/27 06:42:40;;;;;;;1.33;0.90;;;;;;;;;;5085109;28;20115;-54
2023/07/27 06:45:07;;;;;;;2.58;0.95;;;;;;;;;;5071994;28;20261;-56
2023/07/27 06:47:32;;;;;;;2.50;1.30;;;;;;;;;;5047723;28;20024;-58
2023/07/27 06:49:58;;;;;;;1.35;1.00;;;;;;;;;;5080971;28;20020;-57
2023/07/27 06:52:23;;;;;;;2.03;1.00;;;;;;;;;;5078336;28;20027;-54
2023/07/27 06:54:48;;;;;;;1.52;1.10;;;;;;;;;;5015511;28;20639;-56
2023/07/27 06:57:14;;;;;;;4.40;1.40;;;;;;;;;;5060481;28;20395;-57
2023/07/27 06:59:39;;;;;;;2.95;1.20;;;;;;;;;;5074606;28;20269;-54
2023/07/27 07:02:05;;;;;;;3.43;1.03;;;;;;;;;;5083314;28;20482;-51
2023/07/27 07:04:31;;;;;;;1.67;1.00;;;;;;;;;;5069165;28;20099;-57
2023/07/27 07:06:57;;;;;;;2.10;1.17;;;;;;;;;;5079284;28;20081;-55
2023/07/27 07:09:22;;;;;;;1.20;0.70;;;;;;;;;;5077733;28;20073;-56
2023/07/27 07:11:48;;;;;;;5.27;1.03;;;;;;;;;;5078835;28;20105;-58
2023/07/27 07:14:13;;;;;;;4.00;1.30;;;;;;;;;;5078590;28;20691;-58
2023/07/27 07:16:38;;;;;;;2.35;1.20;;;;;;;;;;5076943;28;20263;-55
2023/07/27 07:19:04;;;;;;;5.20;1.20;;;;;;;;;;5073895;28;20027;-57
2023/07/27 07:21:29;;;;;;;1.73;1.13;;;;;;;;;;5077777;28;20705;-58
2023/07/27 07:23:54;;;;;;;2.27;1.20;;;;;;;;;;5060820;28;20024;-53
2023/07/27 07:26:19;;;;;;;3.57;1.20;;;;;;;;;;5078340;28;20020;-55
2023/07/27 07:28:45;;;;;;;1.87;1.00;;;;;;;;;;5077975;28;20089;-58
2023/07/27 07:31:10;;;;;;;2.85;0.93;;;;;;;;;;5078286;28;20376;-60
2023/07/27 07:33:37;;;;;;;1.30;1.00;;;;;;;;;;5076634;28;20052;-58
2023/07/27 07:36:02;;;;;;;3.27;1.20;;;;;;;;;;5076319;28;20027;-59
2023/07/27 07:38:28;;;;;;;2.35;1.10;;;;;;;;;;5073073;28;20645;-62
2023/07/27 07:40:53;;;;;;;2.22;1.20;;;;;;;;;;5025829;28;20053;-59
2023/07/27 07:43:18;;;;;;;29.97;6.57;;;;;;;;;;5077822;28;20392;-57
2023/07/27 07:45:44;;;;;;;4.13;1.10;;;;;;;;;;5059660;28;20302;-59
2023/07/27 07:48:09;;;;;;;4.77;1.37;;;;;;;;;;5078264;28;20253;-56
2023/07/27 07:50:36;;;;;;;1.52;1.00;;;;;;;;;;5078777;28;20028;-58
2023/07/27 07:53:02;;;;;;;3.70;0.98;;;;;;;;;;5061157;28;20048;-62
2023/07/27 07:55:27;;;;;;;1.45;1.10;;;;;;;;;;5075857;28;20051;-61
2023/07/27 07:57:52;;;;;;;2.30;1.10;;;;;;;;;;5077954;28;20016;-63
2023/07/27 08:00:18;;;;;;;3.37;1.10;;;;;;;;;;5071350;28;20613;-60
2023/07/27 08:02:43;;;;;;;3.05;0.80;;;;;;;;;;5078405;28;20268;-61
2023/07/27 08:05:09;;;;;;;2.45;1.10;;;;;;;;;;5073085;28;20024;-62
2023/07/27 08:07:34;;;;;;;1.48;1.00;;;;;;;;;;5040662;28;20024;-62
2023/07/27 08:12:19;;;;;;;2.45;1.02;;;;;;;;;;5061274;28;20378;-58
2023/07/27 08:14:44;;;;;;;3.00;1.60;;;;;;;;;;5060362;28;20025;-59
2023/07/27 08:17:10;;;;;;;4.20;1.43;;;;;;;;;;5061553;28;20276;-60
2023/07/27 08:19:35;;;;;;;2.77;1.10;;;;;;;;;;5061451;28;20020;-61
2023/07/27 08:22:00;;;;;;;1.70;0.93;;;;;;;;;;5064529;28;20111;-61
2023/07/27 08:24:25;;;;;;;1.17;0.90;;;;;;;;;;5061019;28;20504;-61
2023/07/27 08:26:51;;;;;;;3.57;1.30;;;;;;;;;;5054902;28;20024;-60
2023/07/27 08:29:16;;;;;;;3.03;0.87;;;;;;;;;;5060826;28;20303;-61
2023/07/27 08:31:41;;;;;;;1.87;1.10;;;;;;;;;;5075353;28;20041;-57
2023/07/27 08:34:06;;;;;;;4.83;0.97;;;;;;;;;;5060503;28;20264;-61
2023/07/27 08:36:32;;;;;;;7.88;3.25;;;;;;;;;;5061088;28;20028;-62
2023/07/27 08:38:58;;;;;;;3.28;1.75;;;;;;;;;;5061306;28;20025;-61
2023/07/27 08:41:25;;;;;;;3.08;1.17;;;;;;;;;;5061105;28;20701;-61
2023/07/27 08:43:51;;;;;;;1.55;1.00;;;;;;;;;;5059066;28;20450;-61
2023/07/27 08:46:17;;;;;;;3.13;1.30;;;;;;;;;;5060880;28;20021;-60
2023/07/27 08:48:43;;;;;;;4.22;1.00;;;;;;;;;;5060653;28;20031;-60
2023/07/27 08:51:08;;;;;;;1.75;1.00;;;;;;;;;;5060667;28;20532;-61
2023/07/27 08:53:34;;;;;;;3.10;1.00;;;;;;;;;;5059675;28;20070;-61
2023/07/27 08:55:59;;;;;;;3.43;0.87;;;;;;;;;;5059075;28;20269;-58
2023/07/27 08:58:24;;;;;;;2.73;1.00;;;;;;;;;;5056466;28;20274;-59
2023/07/27 09:00:50;;;;;;;0.75;0.70;;;;;;;;;;5058880;28;20013;-58
2023/07/27 09:03:15;;;;;;;2.63;0.90;;;;;;;;;;5070976;28;20041;-60
2023/07/27 09:05:42;;;;;;;4.28;1.20;;;;;;;;;;5053022;28;20017;-59
2023/07/27 09:10:28;;;;;;;2.80;1.08;;;;;;;;;;5103228;27;20422;-61
2023/07/27 09:12:58;;;;;;;2.22;1.00;;;;;;;;;;5101479;28;20024;-60
2023/07/27 09:15:23;;;;;;;2.35;1.20;;;;;;;;;;5102065;28;20028;-60
2023/07/27 09:17:49;;;;;;;3.20;1.07;;;;;;;;;;5101718;28;20081;-60
2023/07/27 09:20:14;;;;;;;1.13;0.80;;;;;;;;;;5097441;28;20020;-60
2023/07/27 09:22:41;;;;;;;2.70;1.23;;;;;;;;;;5102010;28;20283;-60
2023/07/27 09:25:07;;;;;;;5.75;1.13;;;;;;;;;;5100563;28;20074;-59
2023/07/27 09:27:42;;;;;;;4.03;1.20;;;;;;;;;;5101158;28;20024;-60
2023/07/27 09:30:08;;;;;;;1.30;1.10;;;;;;;;;;5094970;28;20024;-60
2023/07/27 09:32:36;;;;;;;1.25;0.80;;;;;;;;;;5097111;28;20136;-60
2023/07/27 09:35:02;;;;;;;;;;;;;;;;;;5099307;28;20370;-61
2023/07/27 09:37:28;;;;;;;3.10;1.20;;;;;;;;;;5092847;28;19904;-59
2023/07/27 09:40:07;;;;;;;1.42;1.00;;;;;;;;;;5099727;28;20039;-60
2023/07/27 09:42:33;;;;;;;1.92;1.00;;;;;;;;;;5099433;28;20334;-61
2023/07/27 09:44:58;;;;;;;4.73;1.50;;;;;;;;;;5100387;28;20374;-60
2023/07/27 09:47:29;;;;;;;2.20;1.02;;;;;;;;;;5098710;28;20352;-61
2023/07/27 09:49:57;;;;;;;2.13;1.00;;;;;;;;;;5098708;28;20115;-60
2023/07/27 09:52:23;;;;;;;1.42;0.88;;;;;;;;;;5101207;28;20108;-58
2023/07/27 09:54:49;;;;;;;1.75;1.10;;;;;;;;;;5100647;28;20332;-60
2023/07/27 09:57:14;;;;;;;1.33;0.90;;;;;;;;;;5096436;28;20050;-60
2023/07/27 09:59:41;;;;;;;3.63;0.95;;;;;;;;;;5100107;28;20020;-61
2023/07/27 10:02:06;;;;;;;2.03;1.02;;;;;;;;;;5100773;28;20027;-61
2023/07/27 10:04:32;;;;;;;1.20;1.10;;;;;;;;;;5101467;28;20030;-61
2023/07/27 10:06:57;;;;;;;1.17;0.90;;;;;;;;;;5099724;28;20536;-59
2023/07/27 10:09:22;;;;;;;1.20;1.00;;;;;;;;;;5113652;27;20055;-58
2023/07/27 10:11:55;;;;;;;1.42;1.08;;;;;;;;;;5083181;28;20059;-60
2023/07/27 10:14:23;;;;;;;2.28;1.10;;;;;;;;;;5080397;28;20028;-58
2023/07/27 10:16:58;;;;;;;2.58;0.85;;;;;;;;;;5098058;28;20023;-60
2023/07/27 10:19:24;;;;;;;1.52;1.13;;;;;;;;;;5093642;28;20131;-61
2023/07/27 10:21:51;;;;;;;2.10;0.95;;;;;;;;;;5083642;28;20047;-61
2023/07/27 10:24:23;;;;;;;2.25;1.02;;;;;;;;;;5074401;28;20020;-60
2023/07/27 10:26:51;;;;;;;1.00;0.90;;;;;;;;;;5086006;28;20028;-60
2023/07/27 10:29:17;;;;;;;;;;;;;;;;;;5087876;28;20031;-60
2023/07/27 10:31:44;;;;;;;1.23;1.00;;;;;;;;;;5085191;28;19930;-57
2023/07/27 10:34:14;;;;;;;2.58;0.90;;;;;;;;;;5087238;28;20077;-61
2023/07/27 10:36:57;;;;;;;1.38;0.98;;;;;;;;;;5070936;28;20032;-59
2023/07/27 10:39:25;;;;;;;3.63;1.05;;;;;;;;;;5078994;28;20043;-60
2023/07/27 10:41:59;;;;;;;1.07;0.83;;;;;;;;;;5080584;28;20056;-60
2023/07/27 10:44:25;;;;;;;1.67;1.10;;;;;;;;;;5084136;28;20016;-61
2023/07/27 10:46:54;;;;;;;1.33;1.20;;;;;;;;;;5084710;28;20024;-60
2023/07/27 10:49:19;;;;;;;3.15;1.27;;;;;;;;;;5085426;28;20052;-60
2023/07/27 10:51:46;;;;;;;2.00;1.05;;;;;;;;;;5066638;28;20040;-60
2023/07/27 10:54:11;;;;;;;1.85;1.00;;;;;;;;;;5086814;28;20091;-59
2023/07/27 10:56:37;;;;;;;1.70;1.10;;;;;;;;;;5084814;28;20099;-60
2023/07/27 10:59:02;;;;;;;2.38;0.82;;;;;;;;;;5086567;28;20096;-59
2023/07/27 11:01:28;;;;;;;5.32;1.05;;;;;;;;;;5082729;28;20395;-60
2023/07/27 11:03:57;;;;;;;1.00;0.77;;;;;;;;;;5085758;28;20647;-61
2023/07/27 11:06:28;;;;;;;2.22;1.27;;;;;;;;;;5080985;28;20597;-59
2023/07/27 11:08:53;;;;;;;1.88;1.00;;;;;;;;;;5083437;28;20125;-59
2023/07/27 11:11:20;;;;;;;5.00;1.33;;;;;;;;;;5073954;28;20456;-62
2023/07/27 11:13:45;;;;;;;1.45;1.05;;;;;;;;;;5088789;28;20468;-59
2023/07/27 11:16:12;;;;;;;3.70;0.98;;;;;;;;;;5085536;28;20016;-60
2023/07/27 11:18:37;;;;;;;3.00;1.25;;;;;;;;;;5086273;28;20460;-59
2023/07/27 11:21:03;;;;;;;1.17;0.90;;;;;;;;;;5076050;28;20032;-61
2023/07/27 11:23:31;;;;;;;6.50;1.20;;;;;;;;;;5066076;28;20024;-61
2023/07/27 11:25:57;;;;;;;1.77;1.10;;;;;;;;;;5077181;28;20118;-59
2023/07/27 11:28:22;;;;;;;27.08;9.32;;;;;;;;;;5085290;28;20138;-61
2023/07/27 11:30:52;;;;;;;1.35;0.88;;;;;;;;;;5085048;28;20470;-61
2023/07/27 11:33:18;;;;;;;1.30;1.00;;;;;;;;;;5084444;28;20353;-61
2023/07/27 11:35:47;;;;;;;1.38;1.05;;;;;;;;;;5083615;28;20014;-62
2023/07/27 11:38:12;;;;;;;1.85;1.27;;;;;;;;;;5075829;28;20070;-60
2023/07/27 11:40:42;;;;;;;2.65;1.10;;;;;;;;;;5084524;28;20028;-61
2023/07/27 11:43:08;;;;;;;1.73;1.10;;;;;;;;;;5085071;28;20384;-60
2023/07/27 11:45:34;;;;;;;4.27;1.20;;;;;;;;;;5083818;28;20031;-61
2023/07/27 11:48:00;;;;;;;4.28;1.15;;;;;;;;;;5084166;28;20823;-61
2023/07/27 11:50:26;;;;;;;1.33;0.90;;;;;;;;;;5082318;28;20028;-61
2023/07/27 11:52:57;;;;;;;4.07;1.45;;;;;;;;;;5084788;28;20782;-61
2023/07/27 11:55:22;;;;;;;1.20;1.05;;;;;;;;;;5085190;28;20020;-61
2023/07/27 11:57:51;;;;;;;5.17;1.23;;;;;;;;;;5082976;28;20028;-63
2023/07/27 12:00:16;;;;;;;0.95;0.88;;;;;;;;;;5083299;28;20062;-61
2023/07/27 12:02:45;;;;;;;1.13;0.85;;;;;;;;;;5082796;28;20469;-61
2023/07/27 12:05:15;;;;;;;2.05;1.05;;;;;;;;;;5075538;28;20016;-62
2023/07/27 12:07:40;;;;;;;1.77;1.10;;;;;;;;;;5067999;28;20099;-63
2023/07/27 12:10:11;;;;;;;2.70;0.85;;;;;;;;;;5083769;28;20139;-61
2023/07/27 12:12:45;;;;;;;1.75;1.10;;;;;;;;;;5083488;28;20028;-62
2023/07/27 12:15:43;;;;;;;4.20;1.20;;;;;;;;;;5074082;28;20024;-62
2023/07/27 12:18:10;;;;;;;5.97;1.15;;;;;;;;;;5030415;28;20041;-63
2023/07/27 12:20:35;;;;;;;3.58;1.35;;;;;;;;;;5027108;28;20082;-63
2023/07/27 12:23:01;;;;;;;3.17;0.82;;;;;;;;;;5026344;28;20033;-65
2023/07/27 12:25:27;;;;;;;6.93;1.38;;;;;;;;;;5029703;28;20033;-61
2023/07/27 12:27:52;;;;;;;1.33;1.20;;;;;;;;;;5033853;28;20072;-63
2023/07/27 12:30:19;;;;;;;1.65;1.10;;;;;;;;;;5035996;28;20033;-62
2023/07/27 12:32:44;;;;;;;3.40;1.13;;;;;;;;;;5036079;28;20028;-62
2023/07/27 12:35:10;;;;;;;1.33;1.20;;;;;;;;;;5028452;28;20098;-63
2023/07/27 12:37:35;;;;;;;1.27;1.00;;;;;;;;;;5035716;28;20079;-62
2023/07/27 12:40:01;;;;;;;1.27;1.17;;;;;;;;;;5029312;28;20041;-63
2023/07/27 12:42:26;;;;;;;1.50;1.20;;;;;;;;;;5038890;28;20657;-59
2023/07/27 12:44:52;;;;;;;9.45;1.83;;;;;;;;;;5037323;28;20031;-61
2023/07/27 12:47:17;;;;;;;3.00;1.20;;;;;;;;;;5038639;28;20037;-61
2023/07/27 12:49:43;;;;;;;3.33;1.20;;;;;;;;;;5034412;28;20075;-61
2023/07/27 12:52:08;;;;;;;3.07;1.07;;;;;;;;;;5036956;28;20032;-61
2023/07/27 12:54:34;;;;;;;1.48;1.10;;;;;;;;;;5075659;28;20084;-61
2023/07/27 12:57:00;;;;;;;0.83;0.80;;;;;;;;;;5076252;28;20423;-61
2023/07/27 12:59:28;;;;;;;5.55;1.30;;;;;;;;;;5075383;28;20601;-62
2023/07/27 13:01:53;;;;;;;3.55;1.02;;;;;;;;;;5069875;28;20411;-59
2023/07/27 13:04:19;;;;;;;1.52;1.13;;;;;;;;;;5081431;28;21642;-61
2023/07/27 13:06:44;;;;;;;1.20;1.10;;;;;;;;;;5073727;28;20020;-61
2023/07/27 13:09:09;;;;;;;1.20;1.10;;;;;;;;;;5075300;28;20676;-60
2023/07/27 13:11:34;;;;;;;4.00;1.08;;;;;;;;;;5077976;28;20020;-61
2023/07/27 13:14:00;;;;;;;1.33;1.20;;;;;;;;;;5075439;28;20042;-61
2023/07/27 13:16:26;;;;;;;3.72;1.08;;;;;;;;;;5075411;28;20016;-61
2023/07/27 13:18:51;;;;;;;1.70;1.10;;;;;;;;;;5078069;28;20030;-61
2023/07/27 13:21:16;;;;;;;1.53;1.07;;;;;;;;;;5083606;28;20043;-60
2023/07/27 13:23:41;;;;;;;1.13;0.90;;;;;;;;;;5080668;28;20413;-61
2023/07/27 13:26:08;;;;;;;2.77;1.00;;;;;;;;;;5077983;28;20264;-61
2023/07/27 13:28:33;;;;;;;2.72;1.60;;;;;;;;;;5074293;28;20089;-60
2023/07/27 13:30:59;;;;;;;1.40;1.00;;;;;;;;;;5082074;28;20024;-62
2023/07/27 13:33:24;;;;;;;1.45;1.00;;;;;;;;;;5081841;28;20048;-61
2023/07/27 13:35:49;;;;;;;1.52;0.98;;;;;;;;;;5075280;28;20048;-62
2023/07/27 13:38:15;;;;;;;1.40;0.80;;;;;;;;;;5077874;28;20640;-61
2023/07/27 13:40:40;;;;;;;0.80;0.77;;;;;;;;;;5079470;28;20051;-62
2023/07/27 13:43:05;;;;;;;2.20;1.03;;;;;;;;;;5073798;28;20045;-61
2023/07/27 13:45:30;;;;;;;3.43;0.97;;;;;;;;;;5070491;28;20030;-61
2023/07/27 13:47:56;;;;;;;4.93;1.17;;;;;;;;;;5082169;28;20039;-61
2023/07/27 13:50:21;;;;;;;1.80;1.20;;;;;;;;;;5081014;28;20036;-61
2023/07/27 13:52:46;;;;;;;0.80;0.80;;;;;;;;;;5073211;28;20024;-62
2023/07/27 13:55:12;;;;;;;1.87;1.10;;;;;;;;;;5081774;28;20499;-62
2023/07/27 13:57:37;;;;;;;3.77;1.00;;;;;;;;;;5076230;28;20336;-61
2023/07/27 14:00:02;;;;;;;1.60;1.13;;;;;;;;;;5074447;28;20322;-57
2023/07/27 14:02:28;;;;;;;0.80;0.80;;;;;;;;;;5070610;28;20121;-62
2023/07/27 14:04:54;;;;;;;1.03;0.83;;;;;;;;;;5083479;28;20056;-61
2023/07/27 14:07:20;;;;;;;1.20;1.00;;;;;;;;;;5075748;28;20301;-62
2023/07/27 14:09:45;;;;;;;1.37;0.80;;;;;;;;;;5082725;28;20071;-62
2023/07/27 14:12:10;;;;;;;1.23;1.00;;;;;;;;;;5078874;28;20023;-59
2023/07/27 14:14:35;;;;;;;1.10;0.77;;;;;;;;;;5074278;28;20066;-61
2023/07/27 14:17:01;;;;;;;8.87;1.20;;;;;;;;;;5080679;28;20260;-62
2023/07/27 14:19:26;;;;;;;3.50;1.08;;;;;;;;;;5084152;28;20102;-61
2023/07/27 14:21:51;;;;;;;0.87;0.73;;;;;;;;;;5082791;28;20694;-61
2023/07/27 14:24:16;;;;;;;4.87;1.13;;;;;;;;;;5079648;28;20063;-61
2023/07/27 14:26:42;;;;;;;1.30;1.20;;;;;;;;;;5085793;28;20042;-61
2023/07/27 14:29:07;;;;;;;0.93;0.90;;;;;;;;;;5086338;28;20273;-61
2023/07/27 14:31:32;;;;;;;1.00;0.90;;;;;;;;;;5085720;28;20051;-61
2023/07/27 14:34:02;;;;;;;2.58;1.15;;;;;;;;;;5079050;28;20448;-61
2023/07/27 14:36:27;;;;;;;2.72;0.85;;;;;;;;;;5081442;28;20080;-61
2023/07/27 14:38:53;;;;;;;1.30;1.00;;;;;;;;;;5088795;28;20031;-61
2023/07/27 14:41:18;;;;;;;5.47;1.37;;;;;;;;;;5086351;28;20055;-61